<?xml version="1.0" encoding="utf-8"?>
<gpx xmlns:xsi="http://www.w3.org/2001/XMLSchema-instance" xmlns:xsd="http://www.w3.org/2001/XMLSchema" version="1.1" creator="Shapelink.com" xmlns="http://www.topografix.com/GPX/1/1" xmlns:gpxtpx="http://www.garmin.com/xmlschemas/TrackPointExtension/v1">
  <metadata>
    <name>Övrigt 1.43 km, 2020-07-25</name>
    <desc></desc>
    <author><name>Marian Moron</name></author> 
    <time>2020-07-25T21:22:22Z</time>
  </metadata>
  <trk>
    <name>Övrigt 1.43 km, 2020-07-25</name>
    <trkseg>
      <trkpt lat="51.229121206826" lon="4.458141251223">
        <ele>0</ele>
        <time>2020-07-25T21:22:22Z</time>
      </trkpt>
      <trkpt lat="51.22889456025" lon="4.458231021372">
        <ele>5</ele>
        <time>2020-07-25T21:22:43Z</time>
      </trkpt>
      <trkpt lat="51.228634469893" lon="4.458317857856">
        <ele>4.6</ele>
        <time>2020-07-25T21:23:05Z</time>
      </trkpt>
      <trkpt lat="51.228533551817" lon="4.458071681453">
        <ele>7</ele>
        <time>2020-07-25T21:23:30Z</time>
      </trkpt>
      <trkpt lat="51.228534306188" lon="4.457552003653">
        <ele>8.8</ele>
        <time>2020-07-25T21:24:06Z</time>
      </trkpt>
      <trkpt lat="51.228518380578" lon="4.45719686255">
        <ele>13.4</ele>
        <time>2020-07-25T21:24:26Z</time>
      </trkpt>
      <trkpt lat="51.228523744994" lon="4.457181691311">
        <ele>13.8</ele>
        <time>2020-07-25T21:24:28Z</time>
      </trkpt>
      <trkpt lat="51.228529696143" lon="4.457075492638">
        <ele>13.2</ele>
        <time>2020-07-25T21:24:39Z</time>
      </trkpt>
      <trkpt lat="51.2285886209" lon="4.456898047815">
        <ele>14.6</ele>
        <time>2020-07-25T21:24:59Z</time>
      </trkpt>
      <trkpt lat="51.229043841889" lon="4.456933000338">
        <ele>13.8</ele>
        <time>2020-07-25T21:25:33Z</time>
      </trkpt>
      <trkpt lat="51.229336705475" lon="4.456906094439">
        <ele>8.4</ele>
        <time>2020-07-25T21:25:57Z</time>
      </trkpt>
      <trkpt lat="51.229615068374" lon="4.456708365418">
        <ele>5.8</ele>
        <time>2020-07-25T21:27:09Z</time>
      </trkpt>
      <trkpt lat="51.229752531534" lon="4.456754968782">
        <ele>5.8</ele>
        <time>2020-07-25T21:27:21Z</time>
      </trkpt>
      <trkpt lat="51.229961827577" lon="4.456533435165">
        <ele>5.2</ele>
        <time>2020-07-25T21:27:44Z</time>
      </trkpt>
      <trkpt lat="51.230352340298" lon="4.456470570915">
        <ele>5</ele>
        <time>2020-07-25T21:28:21Z</time>
      </trkpt>
      <trkpt lat="51.230699937691" lon="4.456293209911">
        <ele>0</ele>
        <time>2020-07-25T21:28:50Z</time>
      </trkpt>
      <trkpt lat="51.230718796966" lon="4.456280217966">
        <ele>0</ele>
        <time>2020-07-25T21:28:52Z</time>
      </trkpt>
      <trkpt lat="51.230951813786" lon="4.456190028722">
        <ele>0</ele>
        <time>2020-07-25T21:29:11Z</time>
      </trkpt>
      <trkpt lat="51.23101099" lon="4.456208804178">
        <ele>0</ele>
        <time>2020-07-25T21:29:23Z</time>
      </trkpt>
      <trkpt lat="51.23122640483" lon="4.456780785034">
        <ele>0</ele>
        <time>2020-07-25T21:29:49Z</time>
      </trkpt>
      <trkpt lat="51.231296142238" lon="4.457247237769">
        <ele>8.2</ele>
        <time>2020-07-25T21:30:19Z</time>
      </trkpt>
      <trkpt lat="51.231298237713" lon="4.457438596546">
        <ele>15.4</ele>
        <time>2020-07-25T21:30:38Z</time>
      </trkpt>
      <trkpt lat="51.231225985735" lon="4.457699105998">
        <ele>8.6</ele>
        <time>2020-07-25T21:31:00Z</time>
      </trkpt>
      <trkpt lat="51.231275271307" lon="4.458396144802">
        <ele>6.8</ele>
        <time>2020-07-25T21:31:48Z</time>
      </trkpt>
      <trkpt lat="51.231192709592" lon="4.458484825304">
        <ele>5.8</ele>
        <time>2020-07-25T21:31:58Z</time>
      </trkpt>
      <trkpt lat="51.231154823404" lon="4.458509300452">
        <ele>5.8</ele>
        <time>2020-07-25T21:32:02Z</time>
      </trkpt>
      <trkpt lat="51.230720724803" lon="4.458645338689">
        <ele>3.2</ele>
        <time>2020-07-25T21:32:46Z</time>
      </trkpt>
      <trkpt lat="51.23049215039" lon="4.458849605592">
        <ele>5.6</ele>
        <time>2020-07-25T21:33:30Z</time>
      </trkpt>
      <trkpt lat="51.230524169248" lon="4.459158730064">
        <ele>8.2</ele>
        <time>2020-07-25T21:33:49Z</time>
      </trkpt>
      <trkpt lat="51.230625171143" lon="4.459856690877">
        <ele>17.4</ele>
        <time>2020-07-25T21:34:37Z</time>
      </trkpt>
      <trkpt lat="51.230666913005" lon="4.460520034443">
        <ele>7</ele>
        <time>2020-07-25T21:35:53Z</time>
      </trkpt>
      <trkpt lat="51.23067906676" lon="4.460668561711">
        <ele>5</ele>
        <time>2020-07-25T21:36:04Z</time>
      </trkpt>
      <trkpt lat="51.23055417645" lon="4.46077509566">
        <ele>0</ele>
        <time>2020-07-25T21:36:31Z</time>
      </trkpt>
      <trkpt lat="51.230538167021" lon="4.46059656119">
        <ele>2</ele>
        <time>2020-07-25T21:37:22Z</time>
      </trkpt>
      <trkpt lat="51.230563815635" lon="4.460473850174">
        <ele>3.4</ele>
        <time>2020-07-25T21:37:30Z</time>
      </trkpt>
      <trkpt lat="51.230466501776" lon="4.459795419188">
        <ele>0</ele>
        <time>2020-07-25T21:38:19Z</time>
      </trkpt>
      <trkpt lat="51.230424340819" lon="4.459322596209">
        <ele>0</ele>
        <time>2020-07-25T21:38:51Z</time>
      </trkpt>
      <trkpt lat="51.230390226486" lon="4.459036521962">
        <ele>0</ele>
        <time>2020-07-25T21:39:08Z</time>
      </trkpt>
      <trkpt lat="51.230362566216" lon="4.45896795802">
        <ele>0</ele>
        <time>2020-07-25T21:39:14Z</time>
      </trkpt>
      <trkpt lat="51.230323171286" lon="4.458967287468">
        <ele>0</ele>
        <time>2020-07-25T21:39:18Z</time>
      </trkpt>
      <trkpt lat="51.22994481232" lon="4.459081784222">
        <ele>0</ele>
        <time>2020-07-25T21:40:07Z</time>
      </trkpt>
      <trkpt lat="51.229776168492" lon="4.459075916892">
        <ele>0</ele>
        <time>2020-07-25T21:40:24Z</time>
      </trkpt>
      <trkpt lat="51.229669466905" lon="4.459093267425">
        <ele>0</ele>
        <time>2020-07-25T21:40:38Z</time>
      </trkpt>
      <trkpt lat="51.229545917699" lon="4.459123777541">
        <ele>0</ele>
        <time>2020-07-25T21:40:52Z</time>
      </trkpt>
      <trkpt lat="51.229234781571" lon="4.459223186875">
        <ele>0</ele>
        <time>2020-07-25T21:42:04Z</time>
      </trkpt>
      <trkpt lat="51.228850471456" lon="4.459225617626">
        <ele>0</ele>
        <time>2020-07-25T21:43:05Z</time>
      </trkpt>
      <trkpt lat="51.228640504861" lon="4.459022608008">
        <ele>4.4</ele>
        <time>2020-07-25T21:43:35Z</time>
      </trkpt>
      <trkpt lat="51.22860454651" lon="4.458349038524">
        <ele>3.2</ele>
        <time>2020-07-25T21:44:22Z</time>
      </trkpt>
      <trkpt lat="51.229025150252" lon="4.458090708366">
        <ele>8.8</ele>
        <time>2020-07-25T21:45:01Z</time>
      </trkpt>
      <trkpt lat="51.229471737884" lon="4.457972272119">
        <ele>9</ele>
        <time>2020-07-25T21:45:44Z</time>
      </trkpt>
    </trkseg>
  </trk>
</gpx>